KEOK/EOK METAR and TAF weather

Enter ICAO airport designator
Station Type Date Time Source
KEOK METAR 2019/10/22 17:15 UTC NOAA

KEOK 221715Z AUTO 27019G28KT 10SM CLR 12/04 A2980 RMK AO2


Station Type Date Time Source
KEOK Decoded METAR 2019/10/22 17:15 UTC NOAA

Keokuk Municipal, IA, United States (KEOK) 40-28N 091-26W
Oct 22, 2019 - 01:15 PM EDT / 2019.10.22 1715 UTC
Wind: from the W (270 degrees) at 22 MPH (19 KT) gusting to 32 MPH (28 KT):0
Visibility: 10 mile(s):0
Sky conditions: clear
Temperature: 53 F (12 C)
Dew Point: 39 F (4 C)
Relative Humidity: 57%
Pressure (altimeter): 29.8 in. Hg (1009 hPa)
ob: KEOK 221715Z AUTO 27019G28KT 10SM CLR 12/04 A2980 RMK AO2
cycle: 17

Station Type Date Time Source
KEOK TAF UTC NOAA

Error!

Example: see airport list